sensor_id;sensor_type;location;lat;lon;timestamp;temperature;humidity
20102;DHT22;10210;52.284;9.892;2023-12-20T00:01:35;10.20;99.90
20102;DHT22;10210;52.284;9.892;2023-12-20T00:04:02;10.20;99.90
20102;DHT22;10210;52.284;9.892;2023-12-20T00:06:29;10.10;99.90
20102;DHT22;10210;52.284;9.892;2023-12-20T00:08:55;10.10;99.90
20102;DHT22;10210;52.284;9.892;2023-12-20T00:11:21;10.10;99.90
20102;DHT22;10210;52.284;9.892;2023-12-20T00:13:47;10.10;99.90
20102;DHT22;10210;52.284;9.892;2023-12-20T00:16:13;10.20;99.90
20102;DHT22;10210;52.284;9.892;2023-12-20T00:18:39;10.10;99.90
20102;DHT22;10210;52.284;9.892;2023-12-20T00:21:04;10.10;99.90
20102;DHT22;10210;52.284;9.892;2023-12-20T00:23:30;10.10;99.90
20102;DHT22;10210;52.284;9.892;2023-12-20T00:25:55;10.10;99.90
20102;DHT22;10210;52.284;9.892;2023-12-20T00:28:21;10.10;99.90
20102;DHT22;10210;52.284;9.892;2023-12-20T00:30:48;10.10;99.90
20102;DHT22;10210;52.284;9.892;2023-12-20T00:33:13;10.00;99.90
20102;DHT22;10210;52.284;9.892;2023-12-20T00:35:39;10.00;99.90
20102;DHT22;10210;52.284;9.892;2023-12-20T00:38:05;9.90;99.90
20102;DHT22;10210;52.284;9.892;2023-12-20T00:40:32;9.90;99.90
20102;DHT22;10210;52.284;9.892;2023-12-20T00:42:58;9.90;99.90
20102;DHT22;10210;52.284;9.892;2023-12-20T00:45:24;9.90;99.90
20102;DHT22;10210;52.284;9.892;2023-12-20T00:47:49;9.80;99.90
20102;DHT22;10210;52.284;9.892;2023-12-20T00:50:15;9.80;99.90
20102;DHT22;10210;52.284;9.892;2023-12-20T00:52:41;9.80;99.90
20102;DHT22;10210;52.284;9.892;2023-12-20T00:55:07;9.80;99.90
20102;DHT22;10210;52.284;9.892;2023-12-20T00:57:33;9.70;99.90
20102;DHT22;10210;52.284;9.892;2023-12-20T00:59:59;9.70;99.90
20102;DHT22;10210;52.284;9.892;2023-12-20T01:02:25;9.70;99.90
20102;DHT22;10210;52.284;9.892;2023-12-20T01:04:50;9.70;99.90
20102;DHT22;10210;52.284;9.892;2023-12-20T01:07:16;9.60;99.90
20102;DHT22;10210;52.284;9.892;2023-12-20T01:09:41;9.60;99.90
20102;DHT22;10210;52.284;9.892;2023-12-20T01:12:07;9.60;99.90
20102;DHT22;10210;52.284;9.892;2023-12-20T01:14:33;9.60;99.90
20102;DHT22;10210;52.284;9.892;2023-12-20T01:16:59;9.60;99.90
20102;DHT22;10210;52.284;9.892;2023-12-20T01:19:25;9.60;99.90
20102;DHT22;10210;52.284;9.892;2023-12-20T01:21:52;9.50;99.90
20102;DHT22;10210;52.284;9.892;2023-12-20T01:24:17;9.50;99.90
20102;DHT22;10210;52.284;9.892;2023-12-20T01:26:43;9.50;99.90
20102;DHT22;10210;52.284;9.892;2023-12-20T01:29:09;9.50;99.90
20102;DHT22;10210;52.284;9.892;2023-12-20T01:31:34;9.50;99.90
20102;DHT22;10210;52.284;9.892;2023-12-20T01:34:00;9.50;99.90
20102;DHT22;10210;52.284;9.892;2023-12-20T01:36:27;9.40;99.90
20102;DHT22;10210;52.284;9.892;2023-12-20T01:38:53;9.40;99.90
20102;DHT22;10210;52.284;9.892;2023-12-20T01:41:18;9.40;99.90
20102;DHT22;10210;52.284;9.892;2023-12-20T01:43:44;9.40;99.90
20102;DHT22;10210;52.284;9.892;2023-12-20T01:46:10;9.40;99.90
20102;DHT22;10210;52.284;9.892;2023-12-20T01:48:37;9.30;99.90
20102;DHT22;10210;52.284;9.892;2023-12-20T01:51:04;9.40;99.90
20102;DHT22;10210;52.284;9.892;2023-12-20T01:53:30;9.30;99.90
20102;DHT22;10210;52.284;9.892;2023-12-20T01:55:58;9.40;99.90
20102;DHT22;10210;52.284;9.892;2023-12-20T01:58:25;9.30;99.90
20102;DHT22;10210;52.284;9.892;2023-12-20T02:00:53;9.30;99.90
20102;DHT22;10210;52.284;9.892;2023-12-20T02:03:19;9.30;99.90
20102;DHT22;10210;52.284;9.892;2023-12-20T02:05:47;9.30;99.90
20102;DHT22;10210;52.284;9.892;2023-12-20T02:08:13;9.30;99.90
20102;DHT22;10210;52.284;9.892;2023-12-20T02:10:39;9.20;99.90
20102;DHT22;10210;52.284;9.892;2023-12-20T02:13:06;9.20;99.90
20102;DHT22;10210;52.284;9.892;2023-12-20T02:15:31;9.20;99.90
20102;DHT22;10210;52.284;9.892;2023-12-20T02:17:57;9.20;99.90
20102;DHT22;10210;52.284;9.892;2023-12-20T02:20:23;9.20;99.90
20102;DHT22;10210;52.284;9.892;2023-12-20T02:22:48;9.20;99.90
20102;DHT22;10210;52.284;9.892;2023-12-20T02:25:14;9.20;99.90
20102;DHT22;10210;52.284;9.892;2023-12-20T02:27:40;9.10;99.90
20102;DHT22;10210;52.284;9.892;2023-12-20T02:30:06;9.10;99.90
20102;DHT22;10210;52.284;9.892;2023-12-20T02:32:32;9.10;99.90
20102;DHT22;10210;52.284;9.892;2023-12-20T02:34:58;9.10;99.90
20102;DHT22;10210;52.284;9.892;2023-12-20T02:37:24;9.10;99.90
20102;DHT22;10210;52.284;9.892;2023-12-20T02:39:50;9.00;99.90
20102;DHT22;10210;52.284;9.892;2023-12-20T02:42:15;9.00;99.90
20102;DHT22;10210;52.284;9.892;2023-12-20T02:44:41;9.00;99.90
20102;DHT22;10210;52.284;9.892;2023-12-20T02:47:06;9.00;99.90
20102;DHT22;10210;52.284;9.892;2023-12-20T02:49:32;9.00;99.90
20102;DHT22;10210;52.284;9.892;2023-12-20T02:51:58;9.00;99.90
20102;DHT22;10210;52.284;9.892;2023-12-20T02:54:23;9.00;99.90
20102;DHT22;10210;52.284;9.892;2023-12-20T02:56:49;9.00;99.90
20102;DHT22;10210;52.284;9.892;2023-12-20T02:59:15;9.00;99.90
20102;DHT22;10210;52.284;9.892;2023-12-20T03:01:44;9.00;99.90
20102;DHT22;10210;52.284;9.892;2023-12-20T03:04:11;8.90;99.90
20102;DHT22;10210;52.284;9.892;2023-12-20T03:06:38;8.90;99.90
20102;DHT22;10210;52.284;9.892;2023-12-20T03:09:04;8.90;99.90
20102;DHT22;10210;52.284;9.892;2023-12-20T03:11:30;8.90;99.90
20102;DHT22;10210;52.284;9.892;2023-12-20T03:13:56;8.90;99.90
20102;DHT22;10210;52.284;9.892;2023-12-20T03:16:23;8.90;99.90
20102;DHT22;10210;52.284;9.892;2023-12-20T03:18:49;8.80;99.90
20102;DHT22;10210;52.284;9.892;2023-12-20T03:21:14;8.80;99.90
20102;DHT22;10210;52.284;9.892;2023-12-20T03:23:41;8.80;99.90
20102;DHT22;10210;52.284;9.892;2023-12-20T03:26:07;8.80;99.90
20102;DHT22;10210;52.284;9.892;2023-12-20T03:28:33;8.80;99.90
20102;DHT22;10210;52.284;9.892;2023-12-20T03:30:59;8.80;99.90
20102;DHT22;10210;52.284;9.892;2023-12-20T03:33:26;8.80;99.90
20102;DHT22;10210;52.284;9.892;2023-12-20T03:35:53;8.80;99.90
20102;DHT22;10210;52.284;9.892;2023-12-20T03:38:18;8.70;99.90
20102;DHT22;10210;52.284;9.892;2023-12-20T03:40:44;8.70;99.90
20102;DHT22;10210;52.284;9.892;2023-12-20T03:43:10;8.70;99.90
20102;DHT22;10210;52.284;9.892;2023-12-20T03:45:35;8.80;99.90
20102;DHT22;10210;52.284;9.892;2023-12-20T03:48:01;8.70;99.90
20102;DHT22;10210;52.284;9.892;2023-12-20T03:50:27;8.70;99.90
20102;DHT22;10210;52.284;9.892;2023-12-20T03:52:53;8.70;99.90
20102;DHT22;10210;52.284;9.892;2023-12-20T03:55:18;8.70;99.90
20102;DHT22;10210;52.284;9.892;2023-12-20T03:57:44;8.70;99.90
20102;DHT22;10210;52.284;9.892;2023-12-20T04:00:11;8.70;99.90
20102;DHT22;10210;52.284;9.892;2023-12-20T04:02:38;8.70;99.90
20102;DHT22;10210;52.284;9.892;2023-12-20T04:05:05;8.70;99.90
20102;DHT22;10210;52.284;9.892;2023-12-20T04:07:32;8.70;99.90
20102;DHT22;10210;52.284;9.892;2023-12-20T04:09:58;8.70;99.90
20102;DHT22;10210;52.284;9.892;2023-12-20T04:12:24;8.70;99.90
20102;DHT22;10210;52.284;9.892;2023-12-20T04:14:50;8.70;99.90
20102;DHT22;10210;52.284;9.892;2023-12-20T04:17:16;8.70;99.90
20102;DHT22;10210;52.284;9.892;2023-12-20T04:19:42;8.70;99.90
20102;DHT22;10210;52.284;9.892;2023-12-20T04:22:08;8.70;99.90
20102;DHT22;10210;52.284;9.892;2023-12-20T04:24:34;8.70;99.90
20102;DHT22;10210;52.284;9.892;2023-12-20T04:27:00;8.70;99.90
20102;DHT22;10210;52.284;9.892;2023-12-20T04:29:27;8.70;99.90
20102;DHT22;10210;52.284;9.892;2023-12-20T04:31:53;8.70;99.90
20102;DHT22;10210;52.284;9.892;2023-12-20T04:34:19;8.70;99.90
20102;DHT22;10210;52.284;9.892;2023-12-20T04:36:45;8.80;99.90
20102;DHT22;10210;52.284;9.892;2023-12-20T04:39:14;8.80;99.90
20102;DHT22;10210;52.284;9.892;2023-12-20T04:41:40;8.80;99.90
20102;DHT22;10210;52.284;9.892;2023-12-20T04:44:06;8.80;99.90
20102;DHT22;10210;52.284;9.892;2023-12-20T04:46:32;8.80;99.90
20102;DHT22;10210;52.284;9.892;2023-12-20T04:48:58;8.80;99.90
20102;DHT22;10210;52.284;9.892;2023-12-20T04:51:23;8.80;99.90
20102;DHT22;10210;52.284;9.892;2023-12-20T04:53:49;8.80;99.90
20102;DHT22;10210;52.284;9.892;2023-12-20T04:56:15;8.90;99.90
20102;DHT22;10210;52.284;9.892;2023-12-20T04:58:41;8.90;99.90
20102;DHT22;10210;52.284;9.892;2023-12-20T05:01:09;8.90;99.90
20102;DHT22;10210;52.284;9.892;2023-12-20T05:03:35;8.90;99.90
20102;DHT22;10210;52.284;9.892;2023-12-20T05:06:01;8.80;99.90
20102;DHT22;10210;52.284;9.892;2023-12-20T05:08:27;8.90;99.90
20102;DHT22;10210;52.284;9.892;2023-12-20T05:10:54;8.90;99.90
20102;DHT22;10210;52.284;9.892;2023-12-20T05:13:20;8.90;99.90
20102;DHT22;10210;52.284;9.892;2023-12-20T05:15:46;8.90;99.90
20102;DHT22;10210;52.284;9.892;2023-12-20T05:18:12;8.90;99.90
20102;DHT22;10210;52.284;9.892;2023-12-20T05:20:38;9.00;99.90
20102;DHT22;10210;52.284;9.892;2023-12-20T05:23:04;8.90;99.90
20102;DHT22;10210;52.284;9.892;2023-12-20T05:25:30;9.00;99.90
20102;DHT22;10210;52.284;9.892;2023-12-20T05:27:56;9.00;99.90
20102;DHT22;10210;52.284;9.892;2023-12-20T05:30:22;9.00;99.90
20102;DHT22;10210;52.284;9.892;2023-12-20T05:32:48;8.90;99.90
20102;DHT22;10210;52.284;9.892;2023-12-20T05:35:13;9.00;99.90
20102;DHT22;10210;52.284;9.892;2023-12-20T05:37:40;8.90;99.90
20102;DHT22;10210;52.284;9.892;2023-12-20T05:40:07;9.00;99.90
20102;DHT22;10210;52.284;9.892;2023-12-20T05:42:36;8.90;99.90
20102;DHT22;10210;52.284;9.892;2023-12-20T05:45:03;9.00;99.90
20102;DHT22;10210;52.284;9.892;2023-12-20T05:47:29;9.00;99.90
20102;DHT22;10210;52.284;9.892;2023-12-20T05:49:55;9.00;99.90
20102;DHT22;10210;52.284;9.892;2023-12-20T05:52:21;9.00;99.90
20102;DHT22;10210;52.284;9.892;2023-12-20T05:54:47;9.00;99.90
20102;DHT22;10210;52.284;9.892;2023-12-20T05:57:13;9.00;99.90
20102;DHT22;10210;52.284;9.892;2023-12-20T05:59:39;9.00;99.90
20102;DHT22;10210;52.284;9.892;2023-12-20T06:02:05;9.00;99.90
20102;DHT22;10210;52.284;9.892;2023-12-20T06:04:31;9.00;99.90
20102;DHT22;10210;52.284;9.892;2023-12-20T06:06:57;9.00;99.90
20102;DHT22;10210;52.284;9.892;2023-12-20T06:09:23;9.00;99.90
20102;DHT22;10210;52.284;9.892;2023-12-20T06:11:49;9.00;99.90
20102;DHT22;10210;52.284;9.892;2023-12-20T06:14:16;9.00;99.90
20102;DHT22;10210;52.284;9.892;2023-12-20T06:16:41;9.00;99.90
20102;DHT22;10210;52.284;9.892;2023-12-20T06:19:07;8.90;99.90
20102;DHT22;10210;52.284;9.892;2023-12-20T06:21:33;8.90;99.90
20102;DHT22;10210;52.284;9.892;2023-12-20T06:23:59;9.00;99.90
20102;DHT22;10210;52.284;9.892;2023-12-20T06:26:25;9.00;99.90
20102;DHT22;10210;52.284;9.892;2023-12-20T06:28:50;8.90;99.90
20102;DHT22;10210;52.284;9.892;2023-12-20T06:31:16;8.90;99.90
20102;DHT22;10210;52.284;9.892;2023-12-20T06:33:43;8.90;99.90
20102;DHT22;10210;52.284;9.892;2023-12-20T06:36:12;8.90;99.90
20102;DHT22;10210;52.284;9.892;2023-12-20T06:38:38;8.90;99.90
20102;DHT22;10210;52.284;9.892;2023-12-20T06:41:04;8.90;99.90
20102;DHT22;10210;52.284;9.892;2023-12-20T06:43:32;8.90;99.90
20102;DHT22;10210;52.284;9.892;2023-12-20T06:46:00;8.90;99.90
20102;DHT22;10210;52.284;9.892;2023-12-20T06:48:28;8.90;99.90
20102;DHT22;10210;52.284;9.892;2023-12-20T06:50:55;8.90;99.90
20102;DHT22;10210;52.284;9.892;2023-12-20T06:53:20;9.00;99.90
20102;DHT22;10210;52.284;9.892;2023-12-20T06:55:46;8.90;99.90
20102;DHT22;10210;52.284;9.892;2023-12-20T06:58:12;8.90;99.90
20102;DHT22;10210;52.284;9.892;2023-12-20T07:00:37;8.90;99.90
20102;DHT22;10210;52.284;9.892;2023-12-20T07:03:03;8.90;99.90
20102;DHT22;10210;52.284;9.892;2023-12-20T07:05:29;8.90;99.90
20102;DHT22;10210;52.284;9.892;2023-12-20T07:07:54;8.90;99.90
20102;DHT22;10210;52.284;9.892;2023-12-20T07:10:20;8.90;99.90
20102;DHT22;10210;52.284;9.892;2023-12-20T07:12:46;8.90;99.90
20102;DHT22;10210;52.284;9.892;2023-12-20T07:15:11;8.90;99.90
20102;DHT22;10210;52.284;9.892;2023-12-20T07:17:37;8.80;99.90
20102;DHT22;10210;52.284;9.892;2023-12-20T07:20:03;8.90;99.90
20102;DHT22;10210;52.284;9.892;2023-12-20T07:22:30;8.80;99.90
20102;DHT22;10210;52.284;9.892;2023-12-20T07:24:58;8.80;99.90
20102;DHT22;10210;52.284;9.892;2023-12-20T07:27:24;8.80;99.90
20102;DHT22;10210;52.284;9.892;2023-12-20T07:29:50;8.80;99.90
20102;DHT22;10210;52.284;9.892;2023-12-20T07:32:15;8.80;99.90
20102;DHT22;10210;52.284;9.892;2023-12-20T07:34:42;8.80;99.90
20102;DHT22;10210;52.284;9.892;2023-12-20T07:37:09;8.80;99.90
20102;DHT22;10210;52.284;9.892;2023-12-20T07:39:38;8.80;99.90
20102;DHT22;10210;52.284;9.892;2023-12-20T07:42:06;8.80;99.90
20102;DHT22;10210;52.284;9.892;2023-12-20T07:44:34;8.70;99.90
20102;DHT22;10210;52.284;9.892;2023-12-20T07:47:02;8.80;99.90
20102;DHT22;10210;52.284;9.892;2023-12-20T07:49:28;8.70;99.90
20102;DHT22;10210;52.284;9.892;2023-12-20T07:51:54;8.80;99.90
20102;DHT22;10210;52.284;9.892;2023-12-20T07:54:19;8.80;99.90
20102;DHT22;10210;52.284;9.892;2023-12-20T07:56:48;8.70;99.90
20102;DHT22;10210;52.284;9.892;2023-12-20T07:59:14;8.80;99.90
20102;DHT22;10210;52.284;9.892;2023-12-20T08:01:40;8.80;99.90
20102;DHT22;10210;52.284;9.892;2023-12-20T08:04:05;8.80;99.90
20102;DHT22;10210;52.284;9.892;2023-12-20T08:06:31;8.70;99.90
20102;DHT22;10210;52.284;9.892;2023-12-20T08:08:57;8.80;99.90
20102;DHT22;10210;52.284;9.892;2023-12-20T08:11:22;8.80;99.90
20102;DHT22;10210;52.284;9.892;2023-12-20T08:13:48;8.80;99.90
20102;DHT22;10210;52.284;9.892;2023-12-20T08:16:14;8.80;99.90
20102;DHT22;10210;52.284;9.892;2023-12-20T08:18:41;8.80;99.90
20102;DHT22;10210;52.284;9.892;2023-12-20T08:21:07;8.80;99.90
20102;DHT22;10210;52.284;9.892;2023-12-20T08:23:33;8.80;99.90
20102;DHT22;10210;52.284;9.892;2023-12-20T08:26:07;8.90;99.90
20102;DHT22;10210;52.284;9.892;2023-12-20T08:28:33;8.80;99.90
20102;DHT22;10210;52.284;9.892;2023-12-20T08:31:00;8.80;99.90
20102;DHT22;10210;52.284;9.892;2023-12-20T08:33:27;8.80;99.90
20102;DHT22;10210;52.284;9.892;2023-12-20T08:35:53;8.80;99.90
20102;DHT22;10210;52.284;9.892;2023-12-20T08:38:18;8.80;99.90
20102;DHT22;10210;52.284;9.892;2023-12-20T08:40:44;8.80;99.90
20102;DHT22;10210;52.284;9.892;2023-12-20T08:43:10;8.90;99.90
20102;DHT22;10210;52.284;9.892;2023-12-20T08:45:36;8.90;99.90
20102;DHT22;10210;52.284;9.892;2023-12-20T08:48:02;8.90;99.90
20102;DHT22;10210;52.284;9.892;2023-12-20T08:50:28;8.90;99.90
20102;DHT22;10210;52.284;9.892;2023-12-20T08:52:54;8.90;99.90
20102;DHT22;10210;52.284;9.892;2023-12-20T08:55:20;8.90;99.90
20102;DHT22;10210;52.284;9.892;2023-12-20T08:57:46;9.00;99.90
20102;DHT22;10210;52.284;9.892;2023-12-20T09:00:13;9.00;99.90
20102;DHT22;10210;52.284;9.892;2023-12-20T09:02:39;9.00;99.90
20102;DHT22;10210;52.284;9.892;2023-12-20T09:05:05;9.00;99.90
20102;DHT22;10210;52.284;9.892;2023-12-20T09:07:31;9.00;99.90
20102;DHT22;10210;52.284;9.892;2023-12-20T09:09:57;9.00;99.90
20102;DHT22;10210;52.284;9.892;2023-12-20T09:12:24;9.00;99.90
20102;DHT22;10210;52.284;9.892;2023-12-20T09:14:51;9.10;99.90
20102;DHT22;10210;52.284;9.892;2023-12-20T09:17:18;9.00;99.90
20102;DHT22;10210;52.284;9.892;2023-12-20T09:19:45;9.00;99.90
20102;DHT22;10210;52.284;9.892;2023-12-20T09:22:11;9.00;99.90
20102;DHT22;10210;52.284;9.892;2023-12-20T09:24:38;9.10;99.90
20102;DHT22;10210;52.284;9.892;2023-12-20T09:27:04;9.20;99.90
20102;DHT22;10210;52.284;9.892;2023-12-20T09:29:31;9.10;99.90
20102;DHT22;10210;52.284;9.892;2023-12-20T09:31:57;9.20;99.90
20102;DHT22;10210;52.284;9.892;2023-12-20T09:34:24;9.10;99.90
20102;DHT22;10210;52.284;9.892;2023-12-20T09:36:51;9.20;99.90
20102;DHT22;10210;52.284;9.892;2023-12-20T09:39:18;9.20;99.90
20102;DHT22;10210;52.284;9.892;2023-12-20T09:44:29;9.30;99.90
20102;DHT22;10210;52.284;9.892;2023-12-20T09:46:56;9.40;99.90
20102;DHT22;10210;52.284;9.892;2023-12-20T09:49:22;9.40;99.90
20102;DHT22;10210;52.284;9.892;2023-12-20T09:51:50;9.50;99.90
20102;DHT22;10210;52.284;9.892;2023-12-20T09:54:17;9.40;99.90
20102;DHT22;10210;52.284;9.892;2023-12-20T09:56:44;9.50;99.90
20102;DHT22;10210;52.284;9.892;2023-12-20T09:59:10;9.50;99.90
20102;DHT22;10210;52.284;9.892;2023-12-20T10:01:39;9.50;99.90
20102;DHT22;10210;52.284;9.892;2023-12-20T10:04:07;9.50;99.90
20102;DHT22;10210;52.284;9.892;2023-12-20T10:06:44;9.50;99.90
20102;DHT22;10210;52.284;9.892;2023-12-20T10:09:11;9.50;99.90
20102;DHT22;10210;52.284;9.892;2023-12-20T10:11:40;9.50;99.90
20102;DHT22;10210;52.284;9.892;2023-12-20T10:14:07;9.50;99.90
20102;DHT22;10210;52.284;9.892;2023-12-20T10:16:33;9.40;99.90
20102;DHT22;10210;52.284;9.892;2023-12-20T10:19:00;9.50;99.90
20102;DHT22;10210;52.284;9.892;2023-12-20T10:21:27;9.50;99.90
20102;DHT22;10210;52.284;9.892;2023-12-20T10:23:57;9.40;99.90
20102;DHT22;10210;52.284;9.892;2023-12-20T10:26:27;9.40;99.90
20102;DHT22;10210;52.284;9.892;2023-12-20T10:28:56;9.40;99.90
20102;DHT22;10210;52.284;9.892;2023-12-20T10:34:02;9.50;99.90
20102;DHT22;10210;52.284;9.892;2023-12-20T10:36:30;9.50;99.90
20102;DHT22;10210;52.284;9.892;2023-12-20T10:38:59;9.50;99.90
20102;DHT22;10210;52.284;9.892;2023-12-20T10:41:31;9.50;99.90
20102;DHT22;10210;52.284;9.892;2023-12-20T10:44:03;9.50;99.90
20102;DHT22;10210;52.284;9.892;2023-12-20T10:46:33;9.50;99.90
20102;DHT22;10210;52.284;9.892;2023-12-20T10:49:02;9.50;99.90
20102;DHT22;10210;52.284;9.892;2023-12-20T10:51:31;9.50;99.90
20102;DHT22;10210;52.284;9.892;2023-12-20T10:53:59;9.50;99.90
20102;DHT22;10210;52.284;9.892;2023-12-20T10:56:25;9.50;99.90
20102;DHT22;10210;52.284;9.892;2023-12-20T10:58:56;9.50;99.90
20102;DHT22;10210;52.284;9.892;2023-12-20T11:01:25;9.50;99.90
20102;DHT22;10210;52.284;9.892;2023-12-20T11:03:54;9.50;99.90
20102;DHT22;10210;52.284;9.892;2023-12-20T11:06:26;9.50;99.90
20102;DHT22;10210;52.284;9.892;2023-12-20T11:12:02;9.50;99.90
20102;DHT22;10210;52.284;9.892;2023-12-20T11:14:42;9.50;99.90
20102;DHT22;10210;52.284;9.892;2023-12-20T11:17:12;9.50;99.90
20102;DHT22;10210;52.284;9.892;2023-12-20T11:22:25;9.50;99.90
20102;DHT22;10210;52.284;9.892;2023-12-20T11:24:53;9.50;99.90
20102;DHT22;10210;52.284;9.892;2023-12-20T11:27:20;9.50;99.90
20102;DHT22;10210;52.284;9.892;2023-12-20T11:29:53;9.50;99.90
20102;DHT22;10210;52.284;9.892;2023-12-20T11:34:58;9.50;99.90
20102;DHT22;10210;52.284;9.892;2023-12-20T11:37:35;9.50;99.90
20102;DHT22;10210;52.284;9.892;2023-12-20T11:40:07;9.50;99.90
20102;DHT22;10210;52.284;9.892;2023-12-20T11:42:40;9.50;99.90
20102;DHT22;10210;52.284;9.892;2023-12-20T11:45:24;9.50;99.90
20102;DHT22;10210;52.284;9.892;2023-12-20T11:47:51;9.50;99.90
20102;DHT22;10210;52.284;9.892;2023-12-20T11:50:19;9.50;99.90
20102;DHT22;10210;52.284;9.892;2023-12-20T11:52:50;9.50;99.90
20102;DHT22;10210;52.284;9.892;2023-12-20T11:55:17;9.50;99.90
20102;DHT22;10210;52.284;9.892;2023-12-20T11:57:44;9.50;99.90
20102;DHT22;10210;52.284;9.892;2023-12-20T12:00:10;9.50;99.90
20102;DHT22;10210;52.284;9.892;2023-12-20T12:02:36;9.50;99.90
20102;DHT22;10210;52.284;9.892;2023-12-20T12:05:02;9.40;99.90
20102;DHT22;10210;52.284;9.892;2023-12-20T12:07:31;9.40;99.90
20102;DHT22;10210;52.284;9.892;2023-12-20T12:09:57;9.30;99.90
20102;DHT22;10210;52.284;9.892;2023-12-20T12:12:23;9.10;99.90
20102;DHT22;10210;52.284;9.892;2023-12-20T12:14:50;9.10;99.90
20102;DHT22;10210;52.284;9.892;2023-12-20T12:17:16;8.90;99.90
20102;DHT22;10210;52.284;9.892;2023-12-20T12:19:43;8.90;99.90
20102;DHT22;10210;52.284;9.892;2023-12-20T12:22:13;8.80;99.90
20102;DHT22;10210;52.284;9.892;2023-12-20T12:24:42;8.70;99.90
20102;DHT22;10210;52.284;9.892;2023-12-20T12:27:10;8.60;99.90
20102;DHT22;10210;52.284;9.892;2023-12-20T12:29:37;8.50;99.90
20102;DHT22;10210;52.284;9.892;2023-12-20T12:32:09;8.50;99.90
20102;DHT22;10210;52.284;9.892;2023-12-20T12:34:38;8.50;99.90
20102;DHT22;10210;52.284;9.892;2023-12-20T12:37:05;8.40;99.90
20102;DHT22;10210;52.284;9.892;2023-12-20T12:39:30;8.40;99.90
20102;DHT22;10210;52.284;9.892;2023-12-20T12:41:56;8.40;99.90
20102;DHT22;10210;52.284;9.892;2023-12-20T12:44:23;8.30;99.90
20102;DHT22;10210;52.284;9.892;2023-12-20T12:46:52;8.30;99.90
20102;DHT22;10210;52.284;9.892;2023-12-20T12:49:21;8.30;99.90
20102;DHT22;10210;52.284;9.892;2023-12-20T12:51:47;8.30;99.90
20102;DHT22;10210;52.284;9.892;2023-12-20T12:54:13;8.20;99.90
20102;DHT22;10210;52.284;9.892;2023-12-20T12:56:41;8.20;99.90
20102;DHT22;10210;52.284;9.892;2023-12-20T12:59:08;8.20;99.90
20102;DHT22;10210;52.284;9.892;2023-12-20T13:01:34;8.20;99.90
20102;DHT22;10210;52.284;9.892;2023-12-20T13:04:00;8.30;99.90
20102;DHT22;10210;52.284;9.892;2023-12-20T13:06:28;8.20;99.90
20102;DHT22;10210;52.284;9.892;2023-12-20T13:08:54;8.20;99.90
20102;DHT22;10210;52.284;9.892;2023-12-20T13:11:20;8.20;99.90
20102;DHT22;10210;52.284;9.892;2023-12-20T13:13:46;8.20;99.90
20102;DHT22;10210;52.284;9.892;2023-12-20T13:16:12;8.20;99.90
20102;DHT22;10210;52.284;9.892;2023-12-20T13:18:38;8.30;99.90
20102;DHT22;10210;52.284;9.892;2023-12-20T13:21:08;8.30;99.90
20102;DHT22;10210;52.284;9.892;2023-12-20T13:23:34;8.30;99.90
20102;DHT22;10210;52.284;9.892;2023-12-20T13:26:00;8.30;99.90
20102;DHT22;10210;52.284;9.892;2023-12-20T13:28:26;8.40;99.90
20102;DHT22;10210;52.284;9.892;2023-12-20T13:30:53;8.40;99.90
20102;DHT22;10210;52.284;9.892;2023-12-20T13:33:18;8.40;99.90
20102;DHT22;10210;52.284;9.892;2023-12-20T13:35:44;8.50;99.90
20102;DHT22;10210;52.284;9.892;2023-12-20T13:38:10;8.50;99.90
20102;DHT22;10210;52.284;9.892;2023-12-20T13:40:37;8.50;99.90
20102;DHT22;10210;52.284;9.892;2023-12-20T13:43:03;8.60;99.90
20102;DHT22;10210;52.284;9.892;2023-12-20T13:45:29;8.60;99.90
20102;DHT22;10210;52.284;9.892;2023-12-20T13:47:55;8.60;99.90
20102;DHT22;10210;52.284;9.892;2023-12-20T13:50:21;8.60;99.90
20102;DHT22;10210;52.284;9.892;2023-12-20T13:52:47;8.60;99.90
20102;DHT22;10210;52.284;9.892;2023-12-20T13:55:13;8.70;99.90
20102;DHT22;10210;52.284;9.892;2023-12-20T13:57:39;8.70;99.90
20102;DHT22;10210;52.284;9.892;2023-12-20T14:00:07;8.70;99.90
20102;DHT22;10210;52.284;9.892;2023-12-20T14:02:39;8.70;99.90
20102;DHT22;10210;52.284;9.892;2023-12-20T14:05:06;8.70;99.90
20102;DHT22;10210;52.284;9.892;2023-12-20T14:07:33;8.80;99.90
20102;DHT22;10210;52.284;9.892;2023-12-20T14:09:58;8.80;99.90
20102;DHT22;10210;52.284;9.892;2023-12-20T14:12:25;8.80;99.90
20102;DHT22;10210;52.284;9.892;2023-12-20T14:14:50;8.80;99.90
20102;DHT22;10210;52.284;9.892;2023-12-20T14:17:17;8.80;99.90
20102;DHT22;10210;52.284;9.892;2023-12-20T14:19:43;8.80;99.90
20102;DHT22;10210;52.284;9.892;2023-12-20T14:22:12;8.90;99.90
20102;DHT22;10210;52.284;9.892;2023-12-20T14:24:42;8.90;99.90
20102;DHT22;10210;52.284;9.892;2023-12-20T14:27:08;8.90;99.90
20102;DHT22;10210;52.284;9.892;2023-12-20T14:29:34;8.90;99.90
20102;DHT22;10210;52.284;9.892;2023-12-20T14:32:00;8.90;99.90
20102;DHT22;10210;52.284;9.892;2023-12-20T14:34:29;8.90;99.90
20102;DHT22;10210;52.284;9.892;2023-12-20T14:36:55;8.90;99.90
20102;DHT22;10210;52.284;9.892;2023-12-20T14:39:21;8.90;99.90
20102;DHT22;10210;52.284;9.892;2023-12-20T14:41:47;8.90;99.90
20102;DHT22;10210;52.284;9.892;2023-12-20T14:44:12;8.90;99.90
20102;DHT22;10210;52.284;9.892;2023-12-20T14:46:38;8.90;99.90
20102;DHT22;10210;52.284;9.892;2023-12-20T14:49:05;8.90;99.90
20102;DHT22;10210;52.284;9.892;2023-12-20T14:51:31;8.90;99.90
20102;DHT22;10210;52.284;9.892;2023-12-20T14:53:56;8.90;99.90
20102;DHT22;10210;52.284;9.892;2023-12-20T14:56:23;8.90;99.90
20102;DHT22;10210;52.284;9.892;2023-12-20T14:58:49;8.90;99.90
20102;DHT22;10210;52.284;9.892;2023-12-20T15:01:15;8.90;99.90
20102;DHT22;10210;52.284;9.892;2023-12-20T15:03:41;8.90;99.90
20102;DHT22;10210;52.284;9.892;2023-12-20T15:06:10;8.90;99.90
20102;DHT22;10210;52.284;9.892;2023-12-20T15:08:37;8.90;99.90
20102;DHT22;10210;52.284;9.892;2023-12-20T15:11:02;8.90;99.90
20102;DHT22;10210;52.284;9.892;2023-12-20T15:13:31;8.90;99.90
20102;DHT22;10210;52.284;9.892;2023-12-20T15:15:57;8.90;99.90
20102;DHT22;10210;52.284;9.892;2023-12-20T15:18:23;8.80;99.90
20102;DHT22;10210;52.284;9.892;2023-12-20T15:20:53;8.80;99.90
20102;DHT22;10210;52.284;9.892;2023-12-20T15:23:22;8.90;99.90
20102;DHT22;10210;52.284;9.892;2023-12-20T15:25:51;8.90;99.90
20102;DHT22;10210;52.284;9.892;2023-12-20T15:28:17;8.90;99.90
20102;DHT22;10210;52.284;9.892;2023-12-20T15:30:42;8.90;99.90
20102;DHT22;10210;52.284;9.892;2023-12-20T15:33:08;8.90;99.90
20102;DHT22;10210;52.284;9.892;2023-12-20T15:35:34;8.90;99.90
20102;DHT22;10210;52.284;9.892;2023-12-20T15:38:00;8.90;99.90
20102;DHT22;10210;52.284;9.892;2023-12-20T15:40:26;8.80;99.90
20102;DHT22;10210;52.284;9.892;2023-12-20T15:42:52;8.90;99.90
20102;DHT22;10210;52.284;9.892;2023-12-20T15:45:19;8.80;99.90
20102;DHT22;10210;52.284;9.892;2023-12-20T15:47:48;8.80;99.90
20102;DHT22;10210;52.284;9.892;2023-12-20T15:50:37;8.80;99.90
20102;DHT22;10210;52.284;9.892;2023-12-20T15:53:03;8.90;99.90
20102;DHT22;10210;52.284;9.892;2023-12-20T15:55:29;9.00;99.90